createdAt,value
2023-01-08T00:02:02.051Z,3.58
2023-01-08T00:07:03.317Z,3.67
2023-01-08T00:12:04.607Z,3.85
2023-01-08T00:17:05.906Z,3.69
2023-01-08T00:22:07.177Z,3.48
2023-01-08T00:27:08.571Z,3.67
2023-01-08T00:32:09.912Z,4.09
2023-01-08T00:37:11.301Z,3.92
2023-01-08T00:42:12.651Z,3.66
2023-01-08T00:47:15.071Z,3.93
2023-01-08T00:52:16.326Z,4.11
2023-01-08T00:57:17.630Z,4.22
2023-01-08T01:02:18.979Z,4.23
2023-01-08T01:07:20.421Z,4.54
2023-01-08T01:12:21.733Z,4.33
2023-01-08T01:17:22.980Z,4.11
2023-01-08T01:22:24.262Z,4.08
2023-01-08T01:27:25.658Z,4.13
2023-01-08T01:32:26.926Z,3.96
2023-01-08T01:37:28.300Z,4.07
2023-01-08T01:42:42.008Z,4.00
2023-01-08T01:47:43.219Z,4.17
2023-01-08T01:52:44.447Z,4.09
2023-01-08T01:57:45.939Z,4.22
2023-01-08T02:02:47.242Z,4.14
2023-01-08T02:07:48.531Z,4.29
2023-01-08T02:12:49.847Z,4.34
2023-01-08T02:17:51.149Z,4.53
2023-01-08T02:22:52.520Z,4.52
2023-01-08T02:27:53.787Z,4.60
2023-01-08T02:32:55.089Z,4.70
2023-01-08T02:37:56.332Z,4.84
2023-01-08T02:42:59.036Z,4.84
2023-01-08T02:48:00.387Z,4.93
2023-01-08T02:53:01.662Z,4.32
2023-01-08T02:58:02.982Z,4.40
2023-01-08T03:03:04.277Z,4.74
2023-01-08T03:08:05.514Z,4.76
2023-01-08T03:13:06.864Z,4.71
2023-01-08T03:18:08.115Z,4.52
2023-01-08T03:23:09.421Z,4.33
2023-01-08T03:28:10.677Z,4.02
2023-01-08T03:33:12.155Z,4.08
2023-01-08T03:38:13.432Z,4.18
2023-01-08T03:43:14.698Z,4.05
2023-01-08T03:48:15.928Z,3.89
2023-01-08T03:53:17.187Z,3.48
2023-01-08T03:58:18.476Z,3.56
2023-01-08T04:03:19.710Z,3.59
2023-01-08T04:08:20.981Z,3.69
2023-01-08T04:13:22.485Z,3.68
2023-01-08T04:18:23.865Z,3.77
2023-01-08T04:23:26.170Z,3.72
2023-01-08T04:28:27.404Z,3.76
2023-01-08T04:33:28.626Z,3.80
2023-01-08T04:38:29.927Z,3.71
2023-01-08T04:43:31.334Z,3.51
2023-01-08T04:48:32.714Z,3.35
2023-01-08T04:53:34.013Z,3.26
2023-01-08T04:58:35.404Z,3.20
2023-01-08T05:03:36.639Z,3.37
2023-01-08T05:08:37.922Z,3.43
2023-01-08T05:13:39.204Z,3.50
2023-01-08T05:18:40.497Z,3.42
2023-01-08T05:23:41.718Z,3.56
2023-01-08T05:28:42.976Z,3.40
2023-01-08T05:33:44.351Z,3.45
2023-01-08T05:38:45.739Z,3.26
2023-01-08T05:43:47.011Z,3.45
2023-01-08T05:48:48.255Z,3.18
2023-01-08T05:53:49.511Z,3.19
2023-01-08T05:58:50.791Z,3.28
2023-01-08T06:03:52.249Z,3.40
2023-01-08T06:08:53.587Z,3.55
2023-01-08T06:13:54.857Z,3.57
2023-01-08T06:18:56.134Z,3.71
2023-01-08T06:23:57.392Z,3.41
2023-01-08T06:28:58.738Z,3.10
2023-01-08T06:34:00.067Z,3.23
2023-01-08T06:39:01.346Z,3.28
2023-01-08T06:44:02.573Z,3.24
2023-01-08T06:49:03.816Z,3.23
2023-01-08T06:54:05.178Z,3.39
2023-01-08T06:59:06.461Z,3.33
2023-01-08T07:04:07.692Z,3.49
2023-01-08T07:09:09.000Z,3.41
2023-01-08T07:14:10.362Z,3.34
2023-01-08T07:19:11.737Z,3.46
2023-01-08T07:24:12.966Z,3.42
2023-01-08T07:29:14.212Z,3.52
2023-01-08T07:34:15.499Z,2.88
2023-01-08T07:39:16.800Z,2.45
2023-01-08T07:44:18.008Z,2.65
2023-01-08T07:49:19.294Z,2.88
2023-01-08T07:54:20.545Z,2.85
2023-01-08T07:59:23.321Z,2.85
2023-01-08T08:04:24.571Z,2.86
2023-01-08T08:09:25.849Z,3.02
2023-01-08T08:14:27.096Z,3.03
2023-01-08T08:19:28.393Z,3.10
2023-01-08T08:24:29.677Z,3.19
2023-01-08T08:29:30.903Z,3.17
2023-01-08T08:34:32.117Z,3.54
2023-01-08T08:39:33.531Z,3.73
2023-01-08T08:44:34.826Z,3.93
2023-01-08T08:49:40.004Z,3.98
2023-01-08T08:54:41.668Z,4.08
2023-01-08T08:59:43.407Z,4.07
2023-01-08T09:04:44.715Z,4.01
2023-01-08T09:09:45.947Z,4.13
2023-01-08T09:14:47.313Z,4.03
2023-01-08T09:19:48.692Z,4.06
2023-01-08T09:24:50.264Z,4.07
2023-01-08T09:29:51.515Z,4.01
2023-01-08T09:34:52.828Z,4.19
2023-01-08T09:40:01.629Z,4.14
2023-01-08T09:45:03.777Z,4.24
2023-01-08T09:50:05.010Z,4.33
2023-01-08T09:55:06.267Z,4.68
2023-01-08T10:00:07.926Z,4.25
2023-01-08T10:05:09.296Z,4.21
2023-01-08T10:10:13.526Z,4.33
2023-01-08T10:15:14.947Z,4.43
2023-01-08T10:20:16.312Z,4.51
2023-01-08T10:25:17.805Z,4.55
2023-01-08T10:30:19.169Z,4.08
2023-01-08T10:35:20.381Z,3.95
2023-01-08T10:40:22.048Z,4.17
2023-01-08T10:45:23.315Z,4.29
2023-01-08T10:50:24.583Z,4.60
2023-01-08T10:55:25.817Z,4.93
2023-01-08T11:00:27.208Z,5.39
2023-01-08T11:05:28.446Z,4.85
2023-01-08T11:10:30.224Z,4.56
2023-01-08T11:15:31.566Z,4.38
2023-01-08T11:20:32.779Z,4.27
2023-01-08T11:25:33.986Z,4.45
2023-01-08T11:30:35.803Z,4.31
2023-01-08T11:35:37.136Z,4.19
2023-01-08T11:40:38.578Z,4.20
2023-01-08T11:45:40.005Z,4.16
2023-01-08T11:50:41.602Z,4.11
2023-01-08T11:55:42.854Z,4.22
2023-01-08T12:00:44.145Z,4.24
2023-01-08T12:05:46.517Z,4.43
2023-01-08T12:10:47.831Z,4.45
2023-01-08T12:21:14.480Z,5.11
2023-01-08T12:26:15.702Z,4.87
2023-01-08T12:31:17.020Z,4.87
2023-01-08T12:36:18.415Z,4.88
2023-01-08T12:41:19.715Z,4.83
2023-01-08T12:46:20.946Z,5.07
2023-01-08T12:51:22.211Z,4.70
2023-01-08T12:56:23.467Z,4.59
2023-01-08T13:01:24.812Z,4.73
2023-01-08T13:06:26.178Z,4.68
2023-01-08T13:11:27.475Z,4.69
2023-01-08T13:16:28.750Z,4.59
2023-01-08T13:21:30.657Z,4.69
2023-01-08T13:26:32.055Z,4.64
2023-01-08T13:31:33.340Z,4.45
2023-01-08T13:36:34.623Z,4.64
2023-01-08T13:41:36.007Z,5.78
2023-01-08T13:46:37.230Z,5.05
2023-01-08T13:51:38.513Z,4.73
2023-01-08T13:56:39.777Z,4.64
2023-01-08T14:01:41.208Z,4.67
2023-01-08T14:06:43.028Z,4.85
2023-01-08T14:11:44.241Z,5.00
2023-01-08T14:16:45.543Z,4.77
2023-01-08T14:21:46.798Z,4.75
2023-01-08T14:26:48.013Z,4.47
2023-01-08T14:31:49.344Z,4.60
2023-01-08T14:36:50.771Z,4.85
2023-01-08T14:42:10.751Z,4.69
2023-01-08T14:47:12.197Z,4.53
2023-01-08T14:52:15.127Z,4.40
2023-01-08T14:57:16.447Z,4.51
2023-01-08T15:02:57.273Z,4.66
2023-01-08T15:07:42.568Z,4.70
2023-01-08T15:12:44.275Z,5.39
2023-01-08T15:17:45.670Z,4.69
2023-01-08T15:22:47.151Z,5.15
2023-01-08T15:27:48.448Z,5.09
2023-01-08T15:32:49.696Z,5.07
2023-01-08T15:37:50.990Z,4.85
2023-01-08T15:43:10.838Z,4.80
2023-01-08T15:48:12.101Z,5.19
2023-01-08T15:53:13.450Z,5.23
2023-01-08T15:58:14.872Z,5.33
2023-01-08T16:03:16.286Z,5.49
2023-01-08T16:08:17.741Z,5.32
2023-01-08T16:13:19.027Z,5.07
2023-01-08T16:18:20.330Z,5.05
2023-01-08T16:23:21.643Z,5.16
2023-01-08T16:28:22.945Z,5.05
2023-01-08T16:33:24.246Z,4.85
2023-01-08T16:38:25.517Z,4.60
2023-01-08T16:43:26.811Z,4.67
2023-01-08T16:48:28.044Z,4.83
2023-01-08T16:53:29.274Z,4.88
2023-01-08T16:58:30.531Z,5.02
2023-01-08T17:03:31.860Z,4.90
2023-01-08T17:08:33.210Z,4.79
2023-01-08T17:13:34.567Z,4.76
2023-01-08T17:18:35.892Z,4.60
2023-01-08T17:23:37.128Z,4.42
2023-01-08T17:28:38.440Z,4.42
2023-01-08T17:33:39.764Z,4.14
2023-01-08T17:38:41.090Z,4.06
2023-01-08T17:43:42.317Z,4.18
2023-01-08T17:48:43.594Z,4.16
2023-01-08T17:53:44.854Z,3.78
2023-01-08T17:58:46.135Z,3.66
2023-01-08T18:03:47.381Z,3.90
2023-01-08T18:08:48.621Z,4.26
2023-01-08T18:13:49.842Z,4.08
2023-01-08T18:18:51.169Z,4.23
2023-01-08T18:23:52.443Z,4.20
2023-01-08T18:28:53.724Z,4.44
2023-01-08T18:33:54.988Z,4.24
2023-01-08T18:38:57.294Z,4.43
2023-01-08T18:43:58.543Z,4.51
2023-01-08T18:48:59.950Z,4.63
2023-01-08T18:54:01.288Z,4.21
2023-01-08T18:59:02.576Z,4.24
2023-01-08T19:04:04.043Z,4.35
2023-01-08T19:09:05.308Z,4.11
2023-01-08T19:14:06.629Z,4.01
2023-01-08T19:19:07.868Z,3.88
2023-01-08T19:24:09.218Z,4.04
2023-01-08T19:29:10.464Z,3.69
2023-01-08T19:34:11.727Z,3.57
2023-01-08T19:39:12.969Z,3.93
2023-01-08T19:44:14.528Z,3.94
2023-01-08T19:49:15.763Z,3.96
2023-01-08T19:54:18.927Z,3.78
2023-01-08T19:59:25.514Z,3.57
2023-01-08T20:04:27.515Z,3.89
2023-01-08T20:09:29.116Z,3.65
2023-01-08T20:14:35.728Z,3.88
2023-01-08T20:19:37.084Z,3.99
2023-01-08T20:24:38.400Z,3.91
2023-01-08T20:29:39.714Z,4.22
2023-01-08T20:34:41.084Z,4.54
2023-01-08T20:39:42.477Z,4.24
2023-01-08T20:44:43.771Z,4.21
2023-01-08T20:49:45.392Z,4.20
2023-01-08T20:54:46.706Z,4.45
2023-01-08T20:59:48.075Z,4.45
2023-01-08T21:04:50.482Z,4.79
2023-01-08T21:09:51.963Z,4.77
2023-01-08T21:14:53.187Z,5.00
2023-01-08T21:19:54.467Z,4.63
2023-01-08T21:24:55.718Z,4.62
2023-01-08T21:29:57.010Z,4.82
2023-01-08T21:34:58.389Z,5.08
2023-01-08T21:39:59.688Z,5.17
2023-01-08T21:45:21.107Z,5.41
2023-01-08T21:50:23.317Z,5.55
2023-01-08T21:55:24.585Z,5.58
2023-01-08T22:00:25.992Z,5.49
2023-01-08T22:05:27.849Z,5.52
2023-01-08T22:10:29.125Z,5.49
2023-01-08T22:15:30.485Z,5.67
2023-01-08T22:20:31.830Z,5.36
2023-01-08T22:25:33.447Z,5.42
2023-01-08T22:30:34.667Z,5.46
2023-01-08T22:35:35.890Z,5.29
2023-01-08T22:40:37.161Z,5.44
2023-01-08T22:45:38.512Z,5.53
2023-01-08T22:50:39.804Z,5.52
2023-01-08T22:55:41.254Z,5.68
2023-01-08T23:00:42.539Z,5.66
2023-01-08T23:05:46.830Z,5.76
2023-01-08T23:10:48.115Z,5.78
2023-01-08T23:15:49.716Z,5.59
2023-01-08T23:20:50.973Z,5.54
2023-01-08T23:25:52.775Z,5.39
2023-01-08T23:30:54.075Z,5.47
2023-01-08T23:35:55.332Z,5.56
2023-01-08T23:40:56.765Z,5.48
2023-01-08T23:45:59.775Z,5.49
2023-01-08T23:51:01.069Z,5.53
2023-01-08T23:56:02.314Z,5.35
